Time;durP1;ratioP1;P1;durP2;ratioP2;P2;SDS_P1;SDS_P2;PMS_P1;PMS_P2;Temp;Humidity;BMP_temperature;BMP_pressure;BME280_temperature;BME280_humidity;BME280_pressure;Samples;Min_cycle;Max_cycle;Signal;HPM_P1;HPM_P2
2021/10/17 07:00:12;;;;;;;1.50;1.40;;;;;;;5.53;94.58;99187.97;5952356;23;20050;31
2021/10/17 07:02:37;;;;;;;2.40;2.30;;;;;;;5.54;93.46;99196.53;4876447;29;20049;-78
2021/10/17 07:05:04;;;;;;;1.85;1.75;;;;;;;5.10;94.41;99207.25;4878211;29;20109;-78
2021/10/17 07:07:29;;;;;;;0.60;0.60;;;;;;;5.25;94.87;99198.84;4878072;29;20067;-78
2021/10/17 07:09:55;;;;;;;1.42;1.42;;;;;;;5.54;93.10;99197.41;4878164;29;20056;-77
2021/10/17 07:12:20;;;;;;;0.65;0.65;;;;;;;5.51;93.69;99206.78;4894922;29;20021;-78
2021/10/17 07:14:46;;;;;;;1.45;1.35;;;;;;;5.77;92.57;99210.47;4934244;23;20408;-70
2021/10/17 07:17:11;;;;;;;1.05;1.05;;;;;;;5.45;92.45;99209.31;4934648;29;20476;-69
2021/10/17 07:19:36;;;;;;;1.83;1.73;;;;;;;5.79;92.31;99208.75;4934477;29;20030;-70
2021/10/17 07:22:02;;;;;;;4.18;2.53;;;;;;;6.07;90.89;99209.00;4934247;29;20024;-70
2021/10/17 07:24:28;;;;;;;1.63;1.58;;;;;;;6.28;89.23;99206.56;4943728;29;20027;-69
2021/10/17 07:26:53;;;;;;;1.00;1.00;;;;;;;6.15;89.27;99202.19;4953529;29;20029;-70
2021/10/17 07:29:18;;;;;;;1.38;1.38;;;;;;;6.37;89.01;99208.31;4953751;28;20078;-69
2021/10/17 07:31:44;;;;;;;1.50;1.23;;;;;;;6.70;87.57;99202.50;4953420;28;20511;-69
2021/10/17 07:34:09;;;;;;;1.65;1.55;;;;;;;7.06;86.39;99211.19;4953566;28;20034;-69
2021/10/17 07:36:35;;;;;;;1.83;1.73;;;;;;;7.41;83.85;99209.59;4952087;29;20058;-69
2021/10/17 07:39:00;;;;;;;0.93;0.90;;;;;;;7.81;82.20;99207.03;4953472;28;20063;-69
2021/10/17 07:41:25;;;;;;;0.73;0.73;;;;;;;8.10;82.17;99206.16;4952576;28;20043;-69
2021/10/17 07:43:50;;;;;;;1.90;1.65;;;;;;;8.40;79.14;99206.13;4942018;29;20115;-70
2021/10/17 07:46:16;;;;;;;1.05;1.05;;;;;;;8.31;80.48;99208.69;4934204;29;20028;-70
2021/10/17 07:48:41;;;;;;;1.42;1.33;;;;;;;8.86;76.96;99207.72;4936396;29;20106;-70
2021/10/17 07:51:07;;;;;;;0.95;0.95;;;;;;;9.14;75.68;99205.88;4937721;29;20019;-69
2021/10/17 07:53:33;;;;;;;1.60;1.52;;;;;;;9.17;76.85;99205.81;4937439;29;20051;-70
2021/10/17 07:55:59;;;;;;;1.38;1.38;;;;;;;9.73;74.11;99215.81;4937732;29;20055;-70
2021/10/17 07:58:25;;;;;;;1.45;1.13;;;;;;;10.36;72.56;99212.69;4936268;29;20055;-70
2021/10/17 08:00:51;;;;;;;2.10;1.50;;;;;;;12.16;65.13;99211.13;4937587;29;20034;-71
2021/10/17 08:03:17;;;;;;;0.70;0.70;;;;;;;12.82;61.95;99213.34;4936135;29;20393;-71
2021/10/17 08:05:42;;;;;;;0.70;0.70;;;;;;;13.10;60.20;99209.31;4937416;29;20032;-71
2021/10/17 08:08:07;;;;;;;1.35;1.35;;;;;;;12.95;60.83;99220.00;4937723;29;20461;-71
2021/10/17 08:10:33;;;;;;;2.53;1.45;;;;;;;12.16;62.96;99231.91;4937462;29;20027;-71
2021/10/17 08:12:59;;;;;;;1.50;1.40;;;;;;;11.10;67.38;99235.19;4946935;29;20011;-71
2021/10/17 08:15:25;;;;;;;0.98;0.98;;;;;;;10.26;71.63;99236.97;4939814;28;20106;-71
2021/10/17 08:17:50;;;;;;;1.08;1.08;;;;;;;9.91;73.51;99237.22;4937177;29;20066;-71
2021/10/17 08:20:16;;;;;;;1.67;1.58;;;;;;;9.06;78.31;99241.22;4937148;29;20063;-71
2021/10/17 08:22:41;;;;;;;0.77;0.77;;;;;;;10.14;73.41;99242.22;4936930;29;20031;-71
2021/10/17 08:25:08;;;;;;;4.88;1.80;;;;;;;10.22;73.89;99237.84;4937135;29;20032;-71
2021/10/17 08:27:34;;;;;;;1.83;1.73;;;;;;;9.90;75.20;99245.88;4935882;29;20644;-71
2021/10/17 08:29:59;;;;;;;1.13;1.13;;;;;;;9.58;77.28;99243.53;4936919;29;20032;-71
2021/10/17 08:32:25;;;;;;;0.70;0.70;;;;;;;9.82;77.33;99234.75;4936867;29;20030;-71
2021/10/17 08:34:50;;;;;;;0.80;0.80;;;;;;;9.74;76.53;99239.97;4935563;29;20130;-71
2021/10/17 08:37:15;;;;;;;1.20;1.20;;;;;;;9.66;77.36;99234.81;4936857;29;20042;-71
2021/10/17 08:39:41;;;;;;;1.20;1.20;;;;;;;9.62;77.97;99235.75;4936716;29;20496;-71
2021/10/17 08:42:06;;;;;;;1.38;1.27;;;;;;;9.99;77.08;99236.31;4941610;29;20063;-71
2021/10/17 08:44:32;;;;;;;1.55;1.52;;;;;;;10.08;75.58;99239.69;4944434;29;20024;-71
2021/10/17 08:46:59;;;;;;;1.55;1.38;;;;;;;10.06;76.77;99239.72;4936809;29;20477;-71
2021/10/17 08:49:26;;;;;;;1.45;1.35;;;;;;;10.20;75.34;99234.38;4936607;29;20465;-71
2021/10/17 08:51:52;;;;;;;1.17;1.08;;;;;;;10.47;74.34;99235.91;4936395;29;20028;-71
2021/10/17 08:54:17;;;;;;;0.63;0.63;;;;;;;11.32;70.85;99234.88;4936441;29;20020;-71
2021/10/17 08:56:43;;;;;;;2.30;2.13;;;;;;;12.09;68.13;99242.41;4936563;29;20028;-71
2021/10/17 08:59:08;;;;;;;3.58;3.25;;;;;;;12.49;66.89;99240.84;4936131;29;20099;-71
2021/10/17 09:01:36;;;;;;;0.77;0.77;;;;;;;13.28;64.12;99234.06;4936335;29;20034;-71
2021/10/17 09:04:03;;;;;;;0.88;0.88;;;;;;;12.90;63.93;99232.25;4936344;29;20031;-71
2021/10/17 09:06:34;;;;;;;2.17;1.60;;;;;;;13.36;64.51;99231.31;4936359;29;20560;-71
2021/10/17 09:09:20;;;;;;;1.52;1.42;;;;;;;13.76;60.78;99231.25;4936371;29;20024;-71
2021/10/17 09:11:46;;;;;;;4.38;3.63;;;;;;;14.41;59.46;99225.31;4941139;29;20031;-71
2021/10/17 09:14:16;;;;;;;1.63;1.52;;;;;;;13.30;61.95;99228.88;4943931;29;20027;-71
2021/10/17 09:16:44;;;;;;;1.15;1.15;;;;;;;13.29;62.76;99229.72;4936122;29;20036;-71
2021/10/17 09:19:22;;;;;;;1.42;1.42;;;;;;;13.39;62.25;99226.03;4936274;29;20035;-71
2021/10/17 09:21:58;;;;;;;1.40;1.40;;;;;;;13.00;63.30;99227.72;4935865;29;20031;-71
2021/10/17 09:24:46;;;;;;;1.92;1.80;;;;;;;13.74;61.98;99225.25;4936034;29;20053;-74
2021/10/17 09:27:19;;;;;;;1.13;0.90;;;;;;;15.28;56.89;99219.41;4935834;29;20034;-70
2021/10/17 09:29:52;;;;;;;0.90;0.75;;;;;;;16.92;52.04;99201.75;4936084;29;20030;-70
2021/10/17 09:32:19;;;;;;;1.27;1.27;;;;;;;17.72;49.22;99205.66;4935579;29;20501;-70
2021/10/17 09:34:59;;;;;;;4.60;2.33;;;;;;;18.39;47.17;99201.19;4935823;29;20433;-70
2021/10/17 09:37:40;;;;;;;1.67;1.58;;;;;;;18.51;46.91;99195.38;4935744;29;20074;-70
2021/10/17 09:40:19;;;;;;;1.45;1.35;;;;;;;19.46;44.79;99202.44;4935833;29;20051;-70
2021/10/17 09:43:05;;;;;;;1.90;1.70;;;;;;;19.88;43.50;99208.38;4943507;29;20490;-71
2021/10/17 09:45:32;;;;;;;1.10;1.10;;;;;;;20.46;42.24;99195.78;4937680;28;20036;-71
2021/10/17 09:47:57;;;;;;;1.40;1.30;;;;;;;18.38;46.15;99204.72;4935492;29;20501;-71
2021/10/17 09:50:23;;;;;;;1.60;1.23;;;;;;;18.00;48.35;99198.47;4939826;29;20043;-69
2021/10/17 09:52:57;;;;;;;1.98;1.77;;;;;;;19.63;44.57;99198.19;4937017;29;20079;-70
2021/10/17 09:55:23;;;;;;;1.27;1.17;;;;;;;20.66;42.27;99192.13;4952787;29;20027;-72
2021/10/17 09:57:50;;;;;;;1.65;1.55;;;;;;;20.52;42.58;99194.63;4951811;28;20030;-70
2021/10/17 10:00:15;;;;;;;1.23;1.05;;;;;;;21.07;40.65;99191.69;4937367;28;20027;-70
2021/10/17 10:02:45;;;;;;;1.17;1.13;;;;;;;18.96;45.82;99208.28;4933145;29;20038;-70
2021/10/17 10:05:10;;;;;;;;;;;;;;;20.48;42.73;99193.09;4934039;29;20062;-70
2021/10/17 10:07:37;;;;;;;1.90;1.57;;;;;;;20.10;42.86;99187.97;4934462;29;19993;-70
2021/10/17 10:10:03;;;;;;;2.00;1.88;;;;;;;19.98;44.54;99188.59;4934725;29;20275;-70
2021/10/17 10:12:29;;;;;;;4.10;2.60;;;;;;;21.14;41.66;99177.25;4940591;29;20478;-70
2021/10/17 10:14:56;;;;;;;2.17;1.83;;;;;;;21.23;41.57;99182.03;4941678;28;20039;-70
2021/10/17 10:17:22;;;;;;;2.72;2.53;;;;;;;21.70;40.14;99181.16;4935357;29;20244;-69
2021/10/17 10:19:48;;;;;;;2.22;2.03;;;;;;;21.66;39.82;99169.13;4935792;29;20045;-70
2021/10/17 10:22:16;;;;;;;1.42;1.33;;;;;;;21.73;39.70;99181.00;4934754;29;20028;-72
2021/10/17 10:24:49;;;;;;;1.95;1.75;;;;;;;19.89;44.45;99194.31;4934749;29;20038;-72
2021/10/17 10:27:15;;;;;;;2.65;2.45;;;;;;;21.20;41.83;99182.19;4934789;29;20377;-70
2021/10/17 10:29:41;;;;;;;2.10;2.00;;;;;;;21.85;39.97;99178.59;4934710;29;20055;-70
2021/10/17 10:32:08;;;;;;;1.80;1.70;;;;;;;20.09;43.59;99183.63;4934615;29;20570;-70
2021/10/17 10:34:36;;;;;;;1.40;1.40;;;;;;;22.01;39.86;99168.88;4934856;29;20103;-70
2021/10/17 10:37:16;;;;;;;1.40;1.30;;;;;;;20.98;41.93;99165.84;4934869;29;20094;-70
2021/10/17 10:39:59;;;;;;;2.65;2.45;;;;;;;20.47;43.06;99165.06;4934691;29;20032;-70
2021/10/17 10:42:33;;;;;;;2.00;1.90;;;;;;;20.15;44.03;99174.56;4940332;29;20389;-70
2021/10/17 10:45:25;;;;;;;2.22;1.83;;;;;;;19.12;46.57;99176.91;4940877;28;20106;-70
2021/10/17 10:48:12;;;;;;;2.08;1.58;;;;;;;19.26;46.89;99174.50;4934776;29;20513;-70
2021/10/17 10:50:52;;;;;;;1.58;1.48;;;;;;;19.35;45.51;99177.63;4950272;29;20054;-70
2021/10/17 10:53:54;;;;;;;2.63;2.42;;;;;;;21.21;42.19;99162.81;4934476;29;20028;-70
2021/10/17 10:56:37;;;;;;;1.42;1.38;;;;;;;20.27;43.60;99164.28;4934622;29;20034;-71
2021/10/17 10:59:03;;;;;;;3.20;2.05;;;;;;;20.78;43.80;99159.88;4934747;29;20095;-71
2021/10/17 11:01:53;;;;;;;2.47;2.28;;;;;;;22.39;40.25;99153.41;4934536;29;20366;-71
2021/10/17 11:04:37;;;;;;;1.20;1.13;;;;;;;21.18;42.43;99162.16;4934620;29;20028;-70
2021/10/17 11:07:22;;;;;;;3.90;2.25;;;;;;;20.83;43.51;99166.69;4934432;29;20050;-70
2021/10/17 11:09:49;;;;;;;1.60;1.50;;;;;;;21.11;43.30;99166.88;4934590;29;20023;-70
2021/10/17 11:12:41;;;;;;;3.78;3.47;;;;;;;21.02;42.64;99172.66;4939352;29;20027;-70
2021/10/17 11:15:09;;;;;;;2.88;1.98;;;;;;;19.25;47.18;99175.41;4948222;29;20059;-70
2021/10/17 11:17:34;;;;;;;1.52;1.42;;;;;;;19.76;45.98;99165.97;4953582;28;20046;-70
2021/10/17 11:20:00;;;;;;;3.17;2.15;;;;;;;19.39;47.30;99173.91;4948514;29;20015;-70
2021/10/17 11:22:26;;;;;;;2.15;1.95;;;;;;;19.74;46.42;99170.47;4952412;28;20102;-70
2021/10/17 11:24:54;;;;;;;1.83;1.75;;;;;;;19.66;46.00;99172.59;4944653;28;20131;-70
2021/10/17 11:27:19;;;;;;;3.65;2.33;;;;;;;18.54;48.90;99169.00;4938026;29;20063;-69
2021/10/17 11:29:47;;;;;;;1.98;1.88;;;;;;;18.66;49.45;99163.22;4938122;29;20058;-70
2021/10/17 11:32:19;;;;;;;4.35;2.10;;;;;;;18.91;47.84;99159.53;4937728;29;20107;-70
2021/10/17 11:34:58;;;;;;;3.45;3.15;;;;;;;18.19;49.46;99163.53;4938259;29;20089;-70
2021/10/17 11:37:26;;;;;;;2.60;2.43;;;;;;;18.39;48.29;99159.19;4938067;29;20469;-70
2021/10/17 11:39:54;;;;;;;2.58;2.38;;;;;;;17.78;50.72;99153.91;4938032;29;20637;-70
2021/10/17 11:42:19;;;;;;;2.03;1.85;;;;;;;18.10;49.60;99158.69;4942624;29;20030;-70
2021/10/17 11:44:44;;;;;;;4.15;2.53;;;;;;;17.46;52.04;99151.66;4945476;29;20032;-70
2021/10/17 11:47:10;;;;;;;2.08;1.98;;;;;;;17.37;52.22;99145.94;4937866;29;20167;-69
2021/10/17 11:49:35;;;;;;;2.95;2.75;;;;;;;16.67;53.95;99152.91;4937624;29;20031;-69
2021/10/17 11:52:04;;;;;;;1.52;1.45;;;;;;;16.96;53.95;99151.00;4937634;29;20040;-69
2021/10/17 11:54:44;;;;;;;3.33;2.38;;;;;;;17.43;52.77;99145.69;4946349;29;20019;-70
2021/10/17 11:57:09;;;;;;;2.58;2.28;;;;;;;17.58;51.76;99139.84;4942406;28;20055;-69
2021/10/17 11:59:35;;;;;;;4.25;2.78;;;;;;;16.69;54.05;99148.50;4937503;29;20094;-69
2021/10/17 12:02:00;;;;;;;2.28;2.00;;;;;;;16.51;55.44;99146.53;4937554;29;20034;-69
2021/10/17 12:04:42;;;;;;;2.05;1.85;;;;;;;15.50;57.94;99149.97;4937363;29;20618;-69
2021/10/17 12:07:07;;;;;;;2.85;2.38;;;;;;;14.67;61.13;99142.94;4937469;29;20163;-70
2021/10/17 12:09:34;;;;;;;1.52;1.35;;;;;;;14.47;63.12;99136.50;4937114;29;20540;-70
2021/10/17 12:12:00;;;;;;;1.48;1.38;;;;;;;14.05;64.96;99139.34;4942295;29;20028;-69
2021/10/17 12:14:26;;;;;;;2.47;1.95;;;;;;;13.73;65.67;99134.13;4944880;29;20020;-70
2021/10/17 12:16:55;;;;;;;1.55;1.48;;;;;;;13.45;67.21;99132.19;4937307;29;20469;-68
2021/10/17 12:19:26;;;;;;;2.25;1.92;;;;;;;13.18;67.16;99127.59;4937114;29;20046;-72
2021/10/17 12:21:52;;;;;;;2.30;1.70;;;;;;;13.14;68.76;99124.22;4937125;29;20519;-69
2021/10/17 12:24:19;;;;;;;1.17;1.17;;;;;;;13.58;68.33;99115.38;4944357;29;20050;-69
2021/10/17 12:26:51;;;;;;;2.97;2.45;;;;;;;13.47;67.42;99120.00;4945248;28;20062;-69
2021/10/17 12:29:19;;;;;;;2.88;2.70;;;;;;;13.27;67.90;99122.22;4937044;29;20106;-69
2021/10/17 12:31:46;;;;;;;2.50;1.27;;;;;;;13.21;69.44;99120.59;4936884;29;20027;-69
2021/10/17 12:34:12;;;;;;;2.95;2.40;;;;;;;12.98;70.21;99118.50;4936195;29;20063;-69
2021/10/17 12:36:40;;;;;;;2.05;1.95;;;;;;;13.26;69.09;99115.31;4936799;29;20536;-68
2021/10/17 12:39:11;;;;;;;1.88;1.77;;;;;;;13.08;69.00;99114.81;4936869;29;20027;-68
2021/10/17 12:41:37;;;;;;;1.83;1.73;;;;;;;13.05;69.76;99114.88;4941717;29;20035;-69
2021/10/17 12:44:05;;;;;;;3.72;1.95;;;;;;;12.17;71.61;99116.72;4944576;29;20090;-69
2021/10/17 12:46:31;;;;;;;2.33;2.22;;;;;;;12.13;72.70;99117.66;4936615;29;20032;-68
2021/10/17 12:49:05;;;;;;;3.83;2.05;;;;;;;12.14;73.39;99114.19;4936719;29;20035;-69
2021/10/17 12:51:46;;;;;;;2.33;2.05;;;;;;;12.05;73.64;99115.22;4936426;29;20102;-68
2021/10/17 12:54:26;;;;;;;2.45;2.35;;;;;;;11.90;73.53;99118.94;4943218;29;20027;-69
2021/10/17 12:56:51;;;;;;;2.33;2.22;;;;;;;12.08;74.06;99126.38;4955669;28;20034;-68
2021/10/17 12:59:18;;;;;;;2.25;2.15;;;;;;;12.22;73.73;99113.13;4955736;29;20550;-68
2021/10/17 13:01:57;;;;;;;3.30;3.00;;;;;;;12.16;73.71;99113.25;4955341;28;20038;-69
2021/10/17 13:04:41;;;;;;;1.98;1.88;;;;;;;11.88;74.53;99119.84;4955498;28;20029;-68
2021/10/17 13:07:07;;;;;;;2.35;2.15;;;;;;;12.00;74.56;99122.25;4955445;28;20019;-69
2021/10/17 13:09:49;;;;;;;2.17;2.08;;;;;;;12.15;74.20;99115.91;4955553;28;20054;-68
2021/10/17 13:12:26;;;;;;;2.22;2.13;;;;;;;11.93;74.63;99105.88;4947933;28;20019;-69
2021/10/17 13:15:11;;;;;;;1.70;1.60;;;;;;;11.88;74.89;99118.09;4960465;23;20138;-70
2021/10/17 13:17:58;;;;;;;2.53;2.40;;;;;;;12.06;74.37;99112.59;4936069;29;20028;-70
2021/10/17 13:20:25;;;;;;;2.80;2.60;;;;;;;11.68;75.12;99121.00;4935958;29;20020;-70
2021/10/17 13:22:53;;;;;;;1.85;1.75;;;;;;;11.49;76.01;99115.28;4935606;29;20035;-70
2021/10/17 13:25:20;;;;;;;4.15;3.72;;;;;;;11.39;76.69;99118.91;4928363;29;20119;-70
2021/10/17 13:27:47;;;;;;;1.77;1.75;;;;;;;11.37;77.05;99120.69;4935860;29;20055;-70
2021/10/17 13:30:13;;;;;;;3.17;2.97;;;;;;;11.12;78.38;99125.38;4935982;29;20038;-70
2021/10/17 13:32:38;;;;;;;3.72;2.80;;;;;;;11.27;78.26;99126.88;4935847;29;20027;-70
2021/10/17 13:35:04;;;;;;;2.97;2.78;;;;;;;11.30;78.20;99124.22;4935686;29;20481;-70
2021/10/17 13:37:30;;;;;;;1.65;1.55;;;;;;;11.36;78.03;99125.88;4936034;29;20392;-70
2021/10/17 13:39:56;;;;;;;3.50;3.20;;;;;;;11.22;78.20;99131.28;4935661;29;20030;-70
2021/10/17 13:42:22;;;;;;;3.00;2.78;;;;;;;11.00;78.63;99121.22;4927713;29;20020;-70
2021/10/17 13:44:48;;;;;;;3.03;2.60;;;;;;;10.55;80.79;99123.53;4935050;29;20090;-70
2021/10/17 13:47:13;;;;;;;2.28;1.70;;;;;;;9.88;83.35;99129.41;4935174;29;20024;-70
2021/10/17 13:49:39;;;;;;;2.55;2.45;;;;;;;10.17;83.27;99128.28;4935345;29;20513;-70
2021/10/17 13:52:05;;;;;;;1.92;1.83;;;;;;;10.31;83.21;99134.19;4935621;29;20027;-70
2021/10/17 13:54:31;;;;;;;4.53;2.97;;;;;;;10.35;83.26;99125.53;4934045;29;20023;-70
2021/10/17 13:56:56;;;;;;;2.10;2.00;;;;;;;10.63;82.06;99126.03;4927716;29;20106;-68
2021/10/17 13:59:23;;;;;;;2.20;2.10;;;;;;;10.49;81.94;99126.22;4935323;29;20031;-68
2021/10/17 14:01:49;;;;;;;2.17;1.73;;;;;;;10.34;82.36;99134.13;4935388;29;20036;-68
2021/10/17 14:04:14;;;;;;;1.73;1.63;;;;;;;10.29;83.21;99130.75;4935320;29;20030;-70
2021/10/17 14:06:39;;;;;;;2.83;2.42;;;;;;;10.30;82.33;99132.50;4935165;29;20028;-70
2021/10/17 14:09:05;;;;;;;2.92;2.67;;;;;;;10.17;83.28;99142.06;4935264;29;20066;-70
2021/10/17 14:11:30;;;;;;;4.35;4.03;;;;;;;10.34;83.06;99136.72;4933743;29;20480;-70
2021/10/17 14:13:55;;;;;;;3.50;3.13;;;;;;;10.52;83.25;99144.28;4923839;29;20032;-70
2021/10/17 14:16:21;;;;;;;2.67;2.47;;;;;;;10.53;81.94;99148.59;4916093;29;20024;-70
2021/10/17 14:18:46;;;;;;;2.22;2.13;;;;;;;10.24;83.53;99153.25;4916218;29;20028;-70
2021/10/17 14:21:12;;;;;;;1.92;1.83;;;;;;;10.01;83.68;99156.91;4916095;29;20112;-70
2021/10/17 14:23:37;;;;;;;3.85;3.55;;;;;;;10.14;83.58;99159.38;4923366;29;20028;-70
2021/10/17 14:26:02;;;;;;;2.95;2.75;;;;;;;10.23;84.36;99151.50;4926942;29;20059;-70
2021/10/17 14:28:28;;;;;;;1.10;1.10;;;;;;;10.08;83.70;99162.03;4935135;29;20039;-70
2021/10/17 14:30:56;;;;;;;2.15;2.05;;;;;;;10.26;83.59;99156.69;4934803;29;20079;-70
2021/10/17 14:33:21;;;;;;;3.38;3.17;;;;;;;10.29;83.85;99161.81;4934813;29;20030;-70
2021/10/17 14:35:46;;;;;;;3.15;2.78;;;;;;;10.33;83.41;99153.16;4934917;29;20036;-70
2021/10/17 14:38:12;;;;;;;4.18;3.88;;;;;;;10.33;83.88;99160.06;4934936;29;20031;-70
2021/10/17 14:40:38;;;;;;;4.28;3.05;;;;;;;10.18;83.75;99158.47;4934856;29;20023;-70
2021/10/17 14:43:03;;;;;;;1.33;1.25;;;;;;;10.16;84.47;99166.25;4926499;29;20028;-71
2021/10/17 14:45:29;;;;;;;2.78;2.67;;;;;;;9.65;86.15;99167.56;4918100;29;20049;-71
2021/10/17 14:47:54;;;;;;;5.38;3.38;;;;;;;9.89;85.85;99161.34;4915714;29;20040;-71
2021/10/17 14:50:19;;;;;;;1.70;1.60;;;;;;;9.76;86.32;99170.94;4915754;29;20106;-71
2021/10/17 14:52:45;;;;;;;1.88;1.77;;;;;;;9.83;86.33;99167.44;4915944;29;20028;-71
2021/10/17 14:55:11;;;;;;;7.47;2.47;;;;;;;9.88;86.69;99165.66;4928325;29;20060;-71
2021/10/17 14:57:37;;;;;;;2.33;2.20;;;;;;;9.77;86.93;99165.75;4935455;29;20234;-70
2021/10/17 15:00:05;;;;;;;1.98;1.88;;;;;;;9.74;87.49;99172.69;4938673;29;20048;-71
2021/10/17 15:02:30;;;;;;;2.35;2.25;;;;;;;9.79;87.59;99165.72;4938213;29;20024;-71
2021/10/17 15:04:56;;;;;;;4.50;4.10;;;;;;;9.85;86.79;99160.50;4938480;29;20065;-69
2021/10/17 15:07:21;;;;;;;9.18;1.85;;;;;;;9.82;87.30;99160.53;4938566;29;20027;-69
2021/10/17 15:09:47;;;;;;;1.13;1.13;;;;;;;9.36;88.29;99154.88;4938396;29;20027;-69
2021/10/17 15:12:12;;;;;;;2.00;1.90;;;;;;;9.48;88.54;99159.97;4930551;29;20127;-69
2021/10/17 15:14:37;;;;;;;1.25;1.25;;;;;;;9.64;87.82;99160.69;4926867;29;20051;-69
2021/10/17 15:17:03;;;;;;;5.47;3.00;;;;;;;9.80;87.61;99151.91;4919481;29;20024;-69
2021/10/17 15:19:28;;;;;;;0.70;0.70;;;;;;;9.74;87.15;99146.81;4919125;29;20032;-69
2021/10/17 15:21:54;;;;;;;2.63;2.50;;;;;;;9.60;87.62;99148.66;4919354;29;20075;-69
2021/10/17 15:24:19;;;;;;;3.33;3.03;;;;;;;9.71;87.34;99146.81;4931894;29;20051;-69
2021/10/17 15:26:45;;;;;;;1.92;1.88;;;;;;;9.75;87.74;99145.94;4930289;29;20079;-69
2021/10/17 15:29:12;;;;;;;3.25;3.00;;;;;;;9.71;87.93;99146.81;4938032;29;20382;-69
2021/10/17 15:31:39;;;;;;;3.63;3.30;;;;;;;9.55;89.04;99155.59;4937909;29;20039;-69
2021/10/17 15:34:07;;;;;;;1.98;1.88;;;;;;;9.53;88.78;99153.03;4937858;29;20028;-69
2021/10/17 15:36:33;;;;;;;3.03;2.30;;;;;;;9.56;89.21;99157.28;4938070;29;20024;-72
2021/10/17 15:38:59;;;;;;;2.83;2.63;;;;;;;9.61;89.30;99160.69;4938017;29;20020;-73
2021/10/17 15:41:25;;;;;;;3.60;2.55;;;;;;;9.66;88.57;99164.13;4937356;29;20107;-73
2021/10/17 15:43:50;;;;;;;1.60;1.50;;;;;;;9.33;90.03;99165.22;4926631;29;20098;-72
2021/10/17 15:46:16;;;;;;;2.83;2.63;;;;;;;9.51;89.09;99165.94;4918770;29;20115;-73
2021/10/17 15:48:42;;;;;;;2.15;2.05;;;;;;;9.37;89.90;99172.09;4917519;29;20523;-73
2021/10/17 15:51:08;;;;;;;1.95;1.85;;;;;;;9.49;89.41;99167.69;4918622;29;20032;-70
2021/10/17 15:53:33;;;;;;;3.08;2.80;;;;;;;9.40;89.95;99162.59;4925388;29;20374;-71
2021/10/17 15:55:58;;;;;;;4.03;3.72;;;;;;;9.45;89.68;99171.19;4929628;29;20027;-70
2021/10/17 15:58:24;;;;;;;2.25;2.15;;;;;;;9.40;90.39;99170.34;4937648;29;20027;-71
2021/10/17 16:00:49;;;;;;;3.78;1.25;;;;;;;9.42;89.76;99170.31;4937452;29;20024;-71
2021/10/17 16:03:14;;;;;;;1.95;1.85;;;;;;;9.45;90.27;99175.50;4937451;29;20035;-71
2021/10/17 16:05:40;;;;;;;3.00;2.75;;;;;;;9.58;89.10;99177.13;4952155;29;20039;-71
2021/10/17 16:08:06;;;;;;;2.10;1.58;;;;;;;9.31;90.31;99178.16;4936736;29;20106;-71
2021/10/17 16:10:31;;;;;;;1.88;1.77;;;;;;;9.02;92.19;99192.13;4937095;29;20118;-71
2021/10/17 16:12:56;;;;;;;2.47;2.30;;;;;;;8.91;92.91;99193.91;4929227;29;20019;-71
2021/10/17 16:15:22;;;;;;;2.80;2.22;;;;;;;9.04;92.44;99194.69;4921442;29;20032;-71
2021/10/17 16:17:47;;;;;;;7.45;2.40;;;;;;;9.08;93.09;99195.53;4918190;29;20020;-71
2021/10/17 16:20:15;;;;;;;3.63;2.58;;;;;;;8.91;92.94;99193.91;4918550;29;20023;-71
2021/10/17 16:22:41;;;;;;;2.67;1.48;;;;;;;9.08;92.52;99195.53;4917941;29;20028;-71
2021/10/17 16:25:07;;;;;;;2.03;1.92;;;;;;;8.92;93.49;99202.50;4931328;29;20066;-71
2021/10/17 16:27:35;;;;;;;1.35;1.35;;;;;;;8.99;92.86;99201.59;4934876;29;20038;-71
2021/10/17 16:30:00;;;;;;;0.60;0.60;;;;;;;9.07;92.50;99204.16;4936992;29;20031;-70
2021/10/17 16:32:32;;;;;;;1.85;1.75;;;;;;;9.10;92.23;99205.00;4936765;29;20461;-72
2021/10/17 16:34:58;;;;;;;1.40;1.30;;;;;;;9.15;92.46;99197.22;4937073;29;20027;-73
2021/10/17 16:37:24;;;;;;;3.17;2.75;;;;;;;9.18;92.28;99207.53;4936868;29;20493;-75
2021/10/17 16:39:50;;;;;;;1.17;1.17;;;;;;;8.98;92.55;99205.91;4936959;29;20051;-71
2021/10/17 16:42:15;;;;;;;3.47;2.42;;;;;;;8.99;93.36;99212.81;4929775;29;20031;-72
2021/10/17 16:44:40;;;;;;;2.25;1.75;;;;;;;9.16;93.31;99209.28;4925332;29;20030;-72
2021/10/17 16:47:06;;;;;;;6.72;2.22;;;;;;;8.71;93.95;99206.06;4917815;29;20028;-72
2021/10/17 16:49:31;;;;;;;2.17;2.05;;;;;;;8.76;94.61;99214.63;4917552;29;20028;-72
2021/10/17 16:51:57;;;;;;;2.30;1.48;;;;;;;8.72;95.29;99213.78;4917604;29;20055;-72
2021/10/17 16:54:23;;;;;;;1.52;1.52;;;;;;;8.84;94.28;99218.03;4930634;29;20019;-72
2021/10/17 16:56:48;;;;;;;4.97;2.75;;;;;;;8.90;94.06;99223.19;4917613;29;20038;-73
2021/10/17 16:59:13;;;;;;;2.78;2.67;;;;;;;8.92;93.92;99221.47;4917538;29;20028;-72
2021/10/17 17:01:39;;;;;;;2.65;2.45;;;;;;;8.71;95.18;99226.72;4917372;29;20389;-73
2021/10/17 17:04:04;;;;;;;1.58;1.48;;;;;;;9.15;93.49;99228.25;4917478;29;20052;-72
2021/10/17 17:06:29;;;;;;;1.65;1.65;;;;;;;9.15;93.37;99234.28;4917505;29;20083;-73
2021/10/17 17:08:55;;;;;;;2.58;2.38;;;;;;;8.87;94.02;99238.72;4917279;29;20086;-72
2021/10/17 17:11:20;;;;;;;2.70;1.88;;;;;;;8.82;94.99;99245.63;4922204;29;20094;-72
2021/10/17 17:13:45;;;;;;;2.22;2.03;;;;;;;8.91;95.24;99240.41;4928174;29;20118;-72
2021/10/17 17:16:11;;;;;;;1.77;1.67;;;;;;;8.88;94.43;99245.59;4936047;29;20027;-73
2021/10/17 17:18:37;;;;;;;2.17;2.08;;;;;;;8.91;95.25;99245.59;4936413;29;20057;-73
2021/10/17 17:21:02;;;;;;;2.63;2.42;;;;;;;8.92;95.48;99243.84;4935818;29;20476;-73
2021/10/17 17:23:27;;;;;;;3.03;2.45;;;;;;;8.86;94.90;99247.34;4935953;29;20035;-72
2021/10/17 17:25:53;;;;;;;1.40;1.40;;;;;;;8.99;94.58;99254.19;4927961;29;20095;-73
2021/10/17 17:28:19;;;;;;;2.47;2.28;;;;;;;8.88;94.73;99255.91;4936039;29;20039;-73
2021/10/17 17:30:45;;;;;;;2.72;2.53;;;;;;;8.71;95.83;99262.88;4935724;29;20449;-72
2021/10/17 17:33:10;;;;;;;1.58;1.48;;;;;;;8.54;97.33;99259.47;4935839;29;20024;-73
2021/10/17 17:35:36;;;;;;;3.65;1.95;;;;;;;8.83;96.48;99268.00;4935714;29;20377;-74
2021/10/17 17:38:02;;;;;;;1.92;1.83;;;;;;;9.07;95.26;99266.19;4935930;29;20056;-72
2021/10/17 17:40:28;;;;;;;1.38;1.38;;;;;;;8.77;96.35;99268.03;4935821;29;20102;-73
2021/10/17 17:42:53;;;;;;;2.05;1.95;;;;;;;8.81;96.02;99264.56;4927523;29;20111;-72
2021/10/17 17:45:18;;;;;;;2.17;2.08;;;;;;;8.56;97.51;99273.22;4920305;29;20035;-72
2021/10/17 17:47:44;;;;;;;2.40;2.30;;;;;;;8.49;98.03;99273.25;4916596;29;20028;-73
2021/10/17 17:50:09;;;;;;;3.63;2.90;;;;;;;8.43;98.33;99272.41;4916706;29;20024;-73
2021/10/17 17:52:35;;;;;;;3.42;2.75;;;;;;;8.51;98.43;99275.84;4916365;29;20485;-73
2021/10/17 17:55:00;;;;;;;3.22;2.92;;;;;;;8.51;98.13;99270.69;4929567;29;20031;-73
2021/10/17 17:57:26;;;;;;;2.08;1.98;;;;;;;8.68;97.92;99268.91;4932464;29;20118;-73
2021/10/17 17:59:51;;;;;;;5.47;2.75;;;;;;;8.59;97.60;99273.22;4950201;29;20102;-73
2021/10/17 18:02:17;;;;;;;2.35;2.25;;;;;;;8.46;98.53;99283.59;4935103;29;20127;-72
2021/10/17 18:04:43;;;;;;;2.83;2.67;;;;;;;8.36;98.67;99284.44;4935349;29;20035;-72
2021/10/17 18:07:08;;;;;;;3.80;2.50;;;;;;;8.39;98.96;99281.00;4935248;29;20608;-72
2021/10/17 18:09:34;;;;;;;2.17;1.83;;;;;;;8.38;98.96;99290.47;4935238;29;20111;-73
2021/10/17 18:12:00;;;;;;;2.97;2.78;;;;;;;8.87;97.36;99284.34;4930012;29;20470;-73
2021/10/17 18:14:25;;;;;;;1.67;1.65;;;;;;;8.66;97.51;99285.28;4923906;29;20039;-72
2021/10/17 18:16:51;;;;;;;2.13;2.03;;;;;;;8.44;98.18;99290.47;4916229;29;20111;-73
2021/10/17 18:19:18;;;;;;;2.58;2.38;;;;;;;8.58;97.54;99287.00;4916125;29;20024;-72
2021/10/17 18:21:44;;;;;;;2.58;2.42;;;;;;;8.73;97.15;99286.97;4916205;29;20028;-72
2021/10/17 18:24:09;;;;;;;2.80;2.30;;;;;;;8.96;95.43;99289.50;4927355;29;20099;-73
2021/10/17 18:26:35;;;;;;;4.30;3.88;;;;;;;8.53;97.53;99293.91;4927092;29;20511;-73
2021/10/17 18:29:00;;;;;;;1.52;1.42;;;;;;;8.73;97.24;99297.31;4934827;29;20038;-73
2021/10/17 18:31:26;;;;;;;2.95;2.75;;;;;;;8.99;96.18;99289.47;4934305;29;20028;-73
2021/10/17 18:33:51;;;;;;;3.60;2.47;;;;;;;9.04;95.44;99292.03;4934743;29;20389;-73
2021/10/17 18:36:16;;;;;;;2.97;2.85;;;;;;;8.98;94.50;99288.63;4935058;29;20374;-73
2021/10/17 18:38:43;;;;;;;2.00;1.95;;;;;;;8.85;95.73;99292.13;4934764;29;20389;-73